sensor_id;sensor_type;location;lat;lon;timestamp;pressure;altitude;pressure_sealevel;temperature
20289;BMP180;10303;51.960;8.372;2023-06-10T00:02:12;100525.00;;;23.10
20289;BMP180;10303;51.960;8.372;2023-06-10T00:04:38;100527.00;;;23.00
20289;BMP180;10303;51.960;8.372;2023-06-10T00:07:05;100526.00;;;23.00
20289;BMP180;10303;51.960;8.372;2023-06-10T00:09:36;100506.00;;;23.00
20289;BMP180;10303;51.960;8.372;2023-06-10T00:12:07;100508.00;;;23.00
20289;BMP180;10303;51.960;8.372;2023-06-10T00:14:36;100513.00;;;23.00
20289;BMP180;10303;51.960;8.372;2023-06-10T00:17:03;100511.00;;;23.00
20289;BMP180;10303;51.960;8.372;2023-06-10T00:19:29;100511.00;;;23.00
20289;BMP180;10303;51.960;8.372;2023-06-10T00:21:57;100508.00;;;22.90
20289;BMP180;10303;51.960;8.372;2023-06-10T00:24:24;100512.00;;;22.90
20289;BMP180;10303;51.960;8.372;2023-06-10T00:26:51;100507.00;;;22.90
20289;BMP180;10303;51.960;8.372;2023-06-10T00:29:17;100504.00;;;22.90
20289;BMP180;10303;51.960;8.372;2023-06-10T00:31:45;100509.00;;;22.90
20289;BMP180;10303;51.960;8.372;2023-06-10T00:34:12;100502.00;;;22.90
20289;BMP180;10303;51.960;8.372;2023-06-10T00:36:39;100502.00;;;22.90
20289;BMP180;10303;51.960;8.372;2023-06-10T00:39:05;100503.00;;;22.80
20289;BMP180;10303;51.960;8.372;2023-06-10T00:41:31;100506.00;;;22.80
20289;BMP180;10303;51.960;8.372;2023-06-10T00:43:59;100515.00;;;22.80
20289;BMP180;10303;51.960;8.372;2023-06-10T00:46:26;100515.00;;;22.80
20289;BMP180;10303;51.960;8.372;2023-06-10T00:48:55;100518.00;;;22.80
20289;BMP180;10303;51.960;8.372;2023-06-10T00:51:22;100508.00;;;22.70
20289;BMP180;10303;51.960;8.372;2023-06-10T00:53:49;100518.00;;;22.70
20289;BMP180;10303;51.960;8.372;2023-06-10T00:56:15;100518.00;;;22.70
20289;BMP180;10303;51.960;8.372;2023-06-10T00:58:41;100514.00;;;22.60
20289;BMP180;10303;51.960;8.372;2023-06-10T01:01:07;100524.00;;;22.60
20289;BMP180;10303;51.960;8.372;2023-06-10T01:03:37;100523.00;;;22.60
20289;BMP180;10303;51.960;8.372;2023-06-10T01:12:19;100517.00;;;22.40
20289;BMP180;10303;51.960;8.372;2023-06-10T01:14:47;100528.00;;;22.40
20289;BMP180;10303;51.960;8.372;2023-06-10T01:17:14;100521.00;;;22.40
20289;BMP180;10303;51.960;8.372;2023-06-10T01:19:42;100522.00;;;22.40
20289;BMP180;10303;51.960;8.372;2023-06-10T01:22:09;100526.00;;;22.40
20289;BMP180;10303;51.960;8.372;2023-06-10T01:24:37;100520.00;;;22.30
20289;BMP180;10303;51.960;8.372;2023-06-10T01:27:12;100534.00;;;22.30
20289;BMP180;10303;51.960;8.372;2023-06-10T01:29:54;100526.00;;;22.20
20289;BMP180;10303;51.960;8.372;2023-06-10T01:32:36;100531.00;;;22.20
20289;BMP180;10303;51.960;8.372;2023-06-10T01:35:05;100526.00;;;22.20
20289;BMP180;10303;51.960;8.372;2023-06-10T01:37:33;100531.00;;;22.20
20289;BMP180;10303;51.960;8.372;2023-06-10T01:40:02;100525.00;;;22.10
20289;BMP180;10303;51.960;8.372;2023-06-10T01:42:32;100525.00;;;22.10
20289;BMP180;10303;51.960;8.372;2023-06-10T01:44:59;100536.00;;;22.10
20289;BMP180;10303;51.960;8.372;2023-06-10T01:47:25;100529.00;;;22.00
20289;BMP180;10303;51.960;8.372;2023-06-10T01:49:52;100523.00;;;22.00
20289;BMP180;10303;51.960;8.372;2023-06-10T01:52:18;100533.00;;;21.90
20289;BMP180;10303;51.960;8.372;2023-06-10T01:54:44;100526.00;;;21.90
20289;BMP180;10303;51.960;8.372;2023-06-10T01:57:11;100521.00;;;21.90
20289;BMP180;10303;51.960;8.372;2023-06-10T01:59:37;100528.00;;;21.80
20289;BMP180;10303;51.960;8.372;2023-06-10T02:02:05;100533.00;;;21.80
20289;BMP180;10303;51.960;8.372;2023-06-10T02:04:31;100534.00;;;21.70
20289;BMP180;10303;51.960;8.372;2023-06-10T02:06:59;100531.00;;;21.70
20289;BMP180;10303;51.960;8.372;2023-06-10T02:09:30;100538.00;;;21.60
20289;BMP180;10303;51.960;8.372;2023-06-10T02:11:57;100535.00;;;21.60
20289;BMP180;10303;51.960;8.372;2023-06-10T02:14:23;100537.00;;;21.60
20289;BMP180;10303;51.960;8.372;2023-06-10T02:16:50;100546.00;;;21.50
20289;BMP180;10303;51.960;8.372;2023-06-10T02:19:16;100549.00;;;21.50
20289;BMP180;10303;51.960;8.372;2023-06-10T02:21:43;100548.00;;;21.50
20289;BMP180;10303;51.960;8.372;2023-06-10T02:24:09;100556.00;;;21.40
20289;BMP180;10303;51.960;8.372;2023-06-10T02:26:35;100549.00;;;21.40
20289;BMP180;10303;51.960;8.372;2023-06-10T02:29:01;100556.00;;;21.30
20289;BMP180;10303;51.960;8.372;2023-06-10T02:31:28;100551.00;;;21.30
20289;BMP180;10303;51.960;8.372;2023-06-10T02:33:54;100552.00;;;21.30
20289;BMP180;10303;51.960;8.372;2023-06-10T02:36:21;100555.00;;;21.20
20289;BMP180;10303;51.960;8.372;2023-06-10T02:38:50;100554.00;;;21.20
20289;BMP180;10303;51.960;8.372;2023-06-10T02:41:17;100545.00;;;21.10
20289;BMP180;10303;51.960;8.372;2023-06-10T02:43:44;100548.00;;;21.10
20289;BMP180;10303;51.960;8.372;2023-06-10T02:46:11;100543.00;;;21.10
20289;BMP180;10303;51.960;8.372;2023-06-10T02:48:45;100550.00;;;21.00
20289;BMP180;10303;51.960;8.372;2023-06-10T02:51:13;100547.00;;;21.00
20289;BMP180;10303;51.960;8.372;2023-06-10T02:53:43;100557.00;;;20.90
20289;BMP180;10303;51.960;8.372;2023-06-10T02:56:11;100557.00;;;20.90
20289;BMP180;10303;51.960;8.372;2023-06-10T02:58:38;100554.00;;;20.80
20289;BMP180;10303;51.960;8.372;2023-06-10T03:01:06;100557.00;;;20.80
20289;BMP180;10303;51.960;8.372;2023-06-10T03:03:41;100557.00;;;20.70
20289;BMP180;10303;51.960;8.372;2023-06-10T03:06:11;100551.00;;;20.70
20289;BMP180;10303;51.960;8.372;2023-06-10T03:08:41;100558.00;;;20.60
20289;BMP180;10303;51.960;8.372;2023-06-10T03:11:12;100557.00;;;20.50
20289;BMP180;10303;51.960;8.372;2023-06-10T03:13:39;100556.00;;;20.50
20289;BMP180;10303;51.960;8.372;2023-06-10T03:16:07;100555.00;;;20.40
20289;BMP180;10303;51.960;8.372;2023-06-10T03:18:36;100566.00;;;20.40
20289;BMP180;10303;51.960;8.372;2023-06-10T03:21:02;100560.00;;;20.30
20289;BMP180;10303;51.960;8.372;2023-06-10T03:23:29;100572.00;;;20.30
20289;BMP180;10303;51.960;8.372;2023-06-10T03:25:55;100567.00;;;20.20
20289;BMP180;10303;51.960;8.372;2023-06-10T03:28:22;100560.00;;;20.20
20289;BMP180;10303;51.960;8.372;2023-06-10T03:30:48;100566.00;;;20.10
20289;BMP180;10303;51.960;8.372;2023-06-10T03:33:14;100562.00;;;20.10
20289;BMP180;10303;51.960;8.372;2023-06-10T03:35:41;100570.00;;;20.00
20289;BMP180;10303;51.960;8.372;2023-06-10T03:38:08;100559.00;;;20.00
20289;BMP180;10303;51.960;8.372;2023-06-10T03:40:34;100565.00;;;20.00
20289;BMP180;10303;51.960;8.372;2023-06-10T03:43:00;100563.00;;;19.90
20289;BMP180;10303;51.960;8.372;2023-06-10T03:45:27;100566.00;;;19.90
20289;BMP180;10303;51.960;8.372;2023-06-10T03:47:58;100571.00;;;19.80
20289;BMP180;10303;51.960;8.372;2023-06-10T03:50:29;100569.00;;;19.80
20289;BMP180;10303;51.960;8.372;2023-06-10T03:52:55;100566.00;;;19.80
20289;BMP180;10303;51.960;8.372;2023-06-10T03:55:25;100559.00;;;19.70
20289;BMP180;10303;51.960;8.372;2023-06-10T03:57:51;100564.00;;;19.70
20289;BMP180;10303;51.960;8.372;2023-06-10T04:00:18;100567.00;;;19.60
20289;BMP180;10303;51.960;8.372;2023-06-10T04:02:47;100554.00;;;19.60
20289;BMP180;10303;51.960;8.372;2023-06-10T04:05:24;100558.00;;;19.60
20289;BMP180;10303;51.960;8.372;2023-06-10T04:07:51;100566.00;;;19.60
20289;BMP180;10303;51.960;8.372;2023-06-10T04:10:17;100557.00;;;19.60
20289;BMP180;10303;51.960;8.372;2023-06-10T04:12:44;100557.00;;;19.60
20289;BMP180;10303;51.960;8.372;2023-06-10T04:15:10;100564.00;;;19.60
20289;BMP180;10303;51.960;8.372;2023-06-10T04:17:37;100555.00;;;19.60
20289;BMP180;10303;51.960;8.372;2023-06-10T04:20:05;100564.00;;;19.60
20289;BMP180;10303;51.960;8.372;2023-06-10T04:22:33;100556.00;;;19.60
20289;BMP180;10303;51.960;8.372;2023-06-10T04:24:59;100566.00;;;19.60
20289;BMP180;10303;51.960;8.372;2023-06-10T04:27:25;100562.00;;;19.60
20289;BMP180;10303;51.960;8.372;2023-06-10T04:29:52;100567.00;;;19.60
20289;BMP180;10303;51.960;8.372;2023-06-10T04:32:18;100569.00;;;19.70
20289;BMP180;10303;51.960;8.372;2023-06-10T04:34:44;100575.00;;;19.70
20289;BMP180;10303;51.960;8.372;2023-06-10T04:37:10;100575.00;;;19.70
20289;BMP180;10303;51.960;8.372;2023-06-10T04:39:36;100577.00;;;19.70
20289;BMP180;10303;51.960;8.372;2023-06-10T04:42:03;100575.00;;;19.80
20289;BMP180;10303;51.960;8.372;2023-06-10T04:44:29;100576.00;;;19.80
20289;BMP180;10303;51.960;8.372;2023-06-10T04:46:56;100582.00;;;19.80
20289;BMP180;10303;51.960;8.372;2023-06-10T04:49:22;100578.00;;;19.90
20289;BMP180;10303;51.960;8.372;2023-06-10T04:51:48;100576.00;;;19.90
20289;BMP180;10303;51.960;8.372;2023-06-10T04:54:15;100573.00;;;19.90
20289;BMP180;10303;51.960;8.372;2023-06-10T04:56:41;100572.00;;;20.00
20289;BMP180;10303;51.960;8.372;2023-06-10T04:59:07;100580.00;;;20.00
20289;BMP180;10303;51.960;8.372;2023-06-10T05:01:33;100573.00;;;20.00
20289;BMP180;10303;51.960;8.372;2023-06-10T05:03:59;100579.00;;;20.10
20289;BMP180;10303;51.960;8.372;2023-06-10T05:06:25;100578.00;;;20.10
20289;BMP180;10303;51.960;8.372;2023-06-10T05:08:51;100579.00;;;20.20
20289;BMP180;10303;51.960;8.372;2023-06-10T05:11:16;100579.00;;;20.20
20289;BMP180;10303;51.960;8.372;2023-06-10T05:13:42;100578.00;;;20.30
20289;BMP180;10303;51.960;8.372;2023-06-10T05:16:09;100583.00;;;20.30
20289;BMP180;10303;51.960;8.372;2023-06-10T05:18:35;100591.00;;;20.30
20289;BMP180;10303;51.960;8.372;2023-06-10T05:21:02;100593.00;;;20.40
20289;BMP180;10303;51.960;8.372;2023-06-10T05:23:28;100589.00;;;20.40
20289;BMP180;10303;51.960;8.372;2023-06-10T05:25:54;100579.00;;;20.50
20289;BMP180;10303;51.960;8.372;2023-06-10T05:28:20;100593.00;;;20.50
20289;BMP180;10303;51.960;8.372;2023-06-10T05:30:46;100589.00;;;20.60
20289;BMP180;10303;51.960;8.372;2023-06-10T05:33:12;100582.00;;;20.60
20289;BMP180;10303;51.960;8.372;2023-06-10T05:35:38;100592.00;;;20.70
20289;BMP180;10303;51.960;8.372;2023-06-10T05:38:05;100594.00;;;20.70
20289;BMP180;10303;51.960;8.372;2023-06-10T05:40:30;100603.00;;;20.80
20289;BMP180;10303;51.960;8.372;2023-06-10T05:42:56;100603.00;;;20.80
20289;BMP180;10303;51.960;8.372;2023-06-10T05:45:22;100604.00;;;20.90
20289;BMP180;10303;51.960;8.372;2023-06-10T05:47:48;100600.00;;;21.00
20289;BMP180;10303;51.960;8.372;2023-06-10T05:50:15;100601.00;;;21.00
20289;BMP180;10303;51.960;8.372;2023-06-10T05:52:41;100597.00;;;21.10
20289;BMP180;10303;51.960;8.372;2023-06-10T05:55:07;100596.00;;;21.10
20289;BMP180;10303;51.960;8.372;2023-06-10T05:57:33;100587.00;;;21.20
20289;BMP180;10303;51.960;8.372;2023-06-10T05:59:59;100587.00;;;21.30
20289;BMP180;10303;51.960;8.372;2023-06-10T06:02:25;100581.00;;;21.30
20289;BMP180;10303;51.960;8.372;2023-06-10T06:04:51;100580.00;;;21.40
20289;BMP180;10303;51.960;8.372;2023-06-10T06:07:17;100599.00;;;21.40
20289;BMP180;10303;51.960;8.372;2023-06-10T06:09:47;100589.00;;;21.50
20289;BMP180;10303;51.960;8.372;2023-06-10T06:12:13;100593.00;;;21.60
20289;BMP180;10303;51.960;8.372;2023-06-10T06:14:39;100608.00;;;21.70
20289;BMP180;10303;51.960;8.372;2023-06-10T06:17:06;100599.00;;;21.70
20289;BMP180;10303;51.960;8.372;2023-06-10T06:19:33;100595.00;;;21.80
20289;BMP180;10303;51.960;8.372;2023-06-10T06:21:59;100588.00;;;21.90
20289;BMP180;10303;51.960;8.372;2023-06-10T06:24:25;100594.00;;;22.00
20289;BMP180;10303;51.960;8.372;2023-06-10T06:26:51;100595.00;;;22.10
20289;BMP180;10303;51.960;8.372;2023-06-10T06:29:18;100599.00;;;22.20
20289;BMP180;10303;51.960;8.372;2023-06-10T06:31:44;100592.00;;;22.30
20289;BMP180;10303;51.960;8.372;2023-06-10T06:34:10;100593.00;;;22.40
20289;BMP180;10303;51.960;8.372;2023-06-10T06:36:36;100582.00;;;22.50
20289;BMP180;10303;51.960;8.372;2023-06-10T06:39:02;100588.00;;;22.60
20289;BMP180;10303;51.960;8.372;2023-06-10T06:41:28;100593.00;;;22.60
20289;BMP180;10303;51.960;8.372;2023-06-10T06:43:55;100587.00;;;22.70
20289;BMP180;10303;51.960;8.372;2023-06-10T06:46:29;100596.00;;;22.80
20289;BMP180;10303;51.960;8.372;2023-06-10T06:48:55;100587.00;;;22.90
20289;BMP180;10303;51.960;8.372;2023-06-10T06:51:21;100597.00;;;23.00
20289;BMP180;10303;51.960;8.372;2023-06-10T06:53:47;100587.00;;;23.10
20289;BMP180;10303;51.960;8.372;2023-06-10T06:56:15;100587.00;;;23.20
20289;BMP180;10303;51.960;8.372;2023-06-10T06:58:41;100588.00;;;23.30
20289;BMP180;10303;51.960;8.372;2023-06-10T07:01:07;100588.00;;;23.40
20289;BMP180;10303;51.960;8.372;2023-06-10T07:03:34;100588.00;;;23.40
20289;BMP180;10303;51.960;8.372;2023-06-10T07:06:00;100595.00;;;23.60
20289;BMP180;10303;51.960;8.372;2023-06-10T07:08:25;100588.00;;;23.70
20289;BMP180;10303;51.960;8.372;2023-06-10T07:10:51;100589.00;;;23.80
20289;BMP180;10303;51.960;8.372;2023-06-10T07:13:17;100597.00;;;23.90
20289;BMP180;10303;51.960;8.372;2023-06-10T07:15:43;100591.00;;;23.90
20289;BMP180;10303;51.960;8.372;2023-06-10T07:18:09;100589.00;;;24.10
20289;BMP180;10303;51.960;8.372;2023-06-10T07:20:35;100587.00;;;24.20
20289;BMP180;10303;51.960;8.372;2023-06-10T07:23:01;100594.00;;;24.30
20289;BMP180;10303;51.960;8.372;2023-06-10T07:25:27;100598.00;;;24.40
20289;BMP180;10303;51.960;8.372;2023-06-10T07:27:53;100609.00;;;24.50
20289;BMP180;10303;51.960;8.372;2023-06-10T07:30:19;100597.00;;;24.60
20289;BMP180;10303;51.960;8.372;2023-06-10T07:32:46;100603.00;;;24.80
20289;BMP180;10303;51.960;8.372;2023-06-10T07:35:12;100604.00;;;24.90
20289;BMP180;10303;51.960;8.372;2023-06-10T07:37:38;100607.00;;;25.00
20289;BMP180;10303;51.960;8.372;2023-06-10T07:40:05;100611.00;;;25.20
20289;BMP180;10303;51.960;8.372;2023-06-10T07:42:35;100600.00;;;25.30
20289;BMP180;10303;51.960;8.372;2023-06-10T07:45:05;100609.00;;;25.50
20289;BMP180;10303;51.960;8.372;2023-06-10T07:47:34;100610.00;;;25.70
20289;BMP180;10303;51.960;8.372;2023-06-10T07:50:01;100620.00;;;25.90
20289;BMP180;10303;51.960;8.372;2023-06-10T07:52:26;100621.00;;;26.00
20289;BMP180;10303;51.960;8.372;2023-06-10T07:54:54;100618.00;;;26.20
20289;BMP180;10303;51.960;8.372;2023-06-10T07:57:20;100616.00;;;26.30
20289;BMP180;10303;51.960;8.372;2023-06-10T07:59:46;100616.00;;;26.50
20289;BMP180;10303;51.960;8.372;2023-06-10T08:02:12;100621.00;;;26.70
20289;BMP180;10303;51.960;8.372;2023-06-10T08:04:37;100624.00;;;26.90
20289;BMP180;10303;51.960;8.372;2023-06-10T08:07:04;100621.00;;;27.00
20289;BMP180;10303;51.960;8.372;2023-06-10T08:09:30;100618.00;;;27.20
20289;BMP180;10303;51.960;8.372;2023-06-10T08:11:56;100617.00;;;27.40
20289;BMP180;10303;51.960;8.372;2023-06-10T08:14:22;100632.00;;;27.60
20289;BMP180;10303;51.960;8.372;2023-06-10T08:16:48;100626.00;;;27.80
20289;BMP180;10303;51.960;8.372;2023-06-10T08:19:14;100636.00;;;28.00
20289;BMP180;10303;51.960;8.372;2023-06-10T08:21:39;100643.00;;;28.20
20289;BMP180;10303;51.960;8.372;2023-06-10T08:24:06;100646.00;;;28.40
20289;BMP180;10303;51.960;8.372;2023-06-10T08:26:33;100646.00;;;28.60
20289;BMP180;10303;51.960;8.372;2023-06-10T08:28:58;100630.00;;;28.70
20289;BMP180;10303;51.960;8.372;2023-06-10T08:31:24;100626.00;;;28.90
20289;BMP180;10303;51.960;8.372;2023-06-10T08:33:50;100626.00;;;29.10
20289;BMP180;10303;51.960;8.372;2023-06-10T08:36:16;100637.00;;;29.20
20289;BMP180;10303;51.960;8.372;2023-06-10T08:38:42;100645.00;;;29.30
20289;BMP180;10303;51.960;8.372;2023-06-10T08:41:12;100641.00;;;29.40
20289;BMP180;10303;51.960;8.372;2023-06-10T08:43:51;100631.00;;;29.50
20289;BMP180;10303;51.960;8.372;2023-06-10T08:46:20;100640.00;;;29.70
20289;BMP180;10303;51.960;8.372;2023-06-10T08:48:53;100632.00;;;29.80
20289;BMP180;10303;51.960;8.372;2023-06-10T08:51:23;100645.00;;;30.00
20289;BMP180;10303;51.960;8.372;2023-06-10T08:54:02;100633.00;;;30.20
20289;BMP180;10303;51.960;8.372;2023-06-10T08:56:30;100635.00;;;30.30
20289;BMP180;10303;51.960;8.372;2023-06-10T08:58:58;100636.00;;;30.50
20289;BMP180;10303;51.960;8.372;2023-06-10T09:01:26;100639.00;;;30.60
20289;BMP180;10303;51.960;8.372;2023-06-10T09:03:52;100630.00;;;30.70
20289;BMP180;10303;51.960;8.372;2023-06-10T09:06:19;100641.00;;;30.90
20289;BMP180;10303;51.960;8.372;2023-06-10T09:08:45;100636.00;;;31.10
20289;BMP180;10303;51.960;8.372;2023-06-10T09:11:10;100642.00;;;31.20
20289;BMP180;10303;51.960;8.372;2023-06-10T09:13:37;100641.00;;;31.40
20289;BMP180;10303;51.960;8.372;2023-06-10T09:16:03;100637.00;;;31.60
20289;BMP180;10303;51.960;8.372;2023-06-10T09:18:31;100644.00;;;31.70
20289;BMP180;10303;51.960;8.372;2023-06-10T09:20:57;100644.00;;;31.90
20289;BMP180;10303;51.960;8.372;2023-06-10T09:23:23;100650.00;;;32.10
20289;BMP180;10303;51.960;8.372;2023-06-10T09:25:57;100640.00;;;32.30
20289;BMP180;10303;51.960;8.372;2023-06-10T09:28:25;100637.00;;;32.50
20289;BMP180;10303;51.960;8.372;2023-06-10T09:31:06;100642.00;;;32.60
20289;BMP180;10303;51.960;8.372;2023-06-10T09:33:33;100641.00;;;32.80
20289;BMP180;10303;51.960;8.372;2023-06-10T09:36:02;100653.00;;;32.90
20289;BMP180;10303;51.960;8.372;2023-06-10T09:38:34;100647.00;;;33.00
20289;BMP180;10303;51.960;8.372;2023-06-10T09:41:00;100641.00;;;33.10
20289;BMP180;10303;51.960;8.372;2023-06-10T09:43:44;100634.00;;;33.10
20289;BMP180;10303;51.960;8.372;2023-06-10T09:46:17;100645.00;;;33.30
20289;BMP180;10303;51.960;8.372;2023-06-10T09:48:45;100643.00;;;33.40
20289;BMP180;10303;51.960;8.372;2023-06-10T09:51:15;100643.00;;;33.50
20289;BMP180;10303;51.960;8.372;2023-06-10T09:53:49;100641.00;;;33.60
20289;BMP180;10303;51.960;8.372;2023-06-10T09:56:16;100636.00;;;33.80
20289;BMP180;10303;51.960;8.372;2023-06-10T09:58:42;100642.00;;;33.90
20289;BMP180;10303;51.960;8.372;2023-06-10T10:01:14;100639.00;;;34.00
20289;BMP180;10303;51.960;8.372;2023-06-10T10:03:48;100649.00;;;34.00
20289;BMP180;10303;51.960;8.372;2023-06-10T10:06:17;100642.00;;;34.00
20289;BMP180;10303;51.960;8.372;2023-06-10T10:08:44;100646.00;;;34.10
20289;BMP180;10303;51.960;8.372;2023-06-10T10:11:11;100650.00;;;34.30
20289;BMP180;10303;51.960;8.372;2023-06-10T10:13:38;100645.00;;;34.30
20289;BMP180;10303;51.960;8.372;2023-06-10T10:16:11;100645.00;;;34.40
20289;BMP180;10303;51.960;8.372;2023-06-10T10:18:42;100644.00;;;34.50
20289;BMP180;10303;51.960;8.372;2023-06-10T10:21:13;100647.00;;;34.70
20289;BMP180;10303;51.960;8.372;2023-06-10T10:24:07;100644.00;;;34.80
20289;BMP180;10303;51.960;8.372;2023-06-10T10:26:35;100641.00;;;35.10
20289;BMP180;10303;51.960;8.372;2023-06-10T10:31:56;100648.00;;;35.20
20289;BMP180;10303;51.960;8.372;2023-06-10T10:37:13;100642.00;;;35.40
20289;BMP180;10303;51.960;8.372;2023-06-10T10:39:39;100642.00;;;35.50
20289;BMP180;10303;51.960;8.372;2023-06-10T10:42:07;100643.00;;;35.70
20289;BMP180;10303;51.960;8.372;2023-06-10T10:44:38;100640.00;;;35.80
20289;BMP180;10303;51.960;8.372;2023-06-10T10:47:08;100638.00;;;35.90
20289;BMP180;10303;51.960;8.372;2023-06-10T10:49:37;100641.00;;;36.00
20289;BMP180;10303;51.960;8.372;2023-06-10T10:52:04;100640.00;;;35.90
20289;BMP180;10303;51.960;8.372;2023-06-10T10:54:35;100636.00;;;35.90
20289;BMP180;10303;51.960;8.372;2023-06-10T10:59:58;100632.00;;;35.90
20289;BMP180;10303;51.960;8.372;2023-06-10T11:02:45;100632.00;;;35.90
20289;BMP180;10303;51.960;8.372;2023-06-10T11:05:15;100628.00;;;35.90
20289;BMP180;10303;51.960;8.372;2023-06-10T11:07:54;100633.00;;;35.90
20289;BMP180;10303;51.960;8.372;2023-06-10T11:10:35;100643.00;;;36.00
20289;BMP180;10303;51.960;8.372;2023-06-10T11:13:15;100635.00;;;36.10
20289;BMP180;10303;51.960;8.372;2023-06-10T11:15:49;100633.00;;;36.20
20289;BMP180;10303;51.960;8.372;2023-06-10T11:18:29;100630.00;;;36.20
20289;BMP180;10303;51.960;8.372;2023-06-10T11:21:01;100627.00;;;36.30
20289;BMP180;10303;51.960;8.372;2023-06-10T11:31:33;100628.00;;;36.60
20289;BMP180;10303;51.960;8.372;2023-06-10T11:34:02;100623.00;;;36.70
20289;BMP180;10303;51.960;8.372;2023-06-10T11:36:38;100612.00;;;36.80
20289;BMP180;10303;51.960;8.372;2023-06-10T11:39:06;100624.00;;;36.80
20289;BMP180;10303;51.960;8.372;2023-06-10T11:41:35;100622.00;;;36.80
20289;BMP180;10303;51.960;8.372;2023-06-10T11:46:35;100620.00;;;36.80
20289;BMP180;10303;51.960;8.372;2023-06-10T11:49:02;100626.00;;;36.80
20289;BMP180;10303;51.960;8.372;2023-06-10T11:51:35;100611.00;;;36.80
20289;BMP180;10303;51.960;8.372;2023-06-10T11:54:04;100613.00;;;36.80
20289;BMP180;10303;51.960;8.372;2023-06-10T11:56:32;100608.00;;;36.80
20289;BMP180;10303;51.960;8.372;2023-06-10T11:59:07;100605.00;;;36.70
20289;BMP180;10303;51.960;8.372;2023-06-10T12:01:41;100607.00;;;36.60
20289;BMP180;10303;51.960;8.372;2023-06-10T12:04:12;100613.00;;;36.60
20289;BMP180;10303;51.960;8.372;2023-06-10T12:11:54;100610.00;;;36.60
20289;BMP180;10303;51.960;8.372;2023-06-10T12:14:59;100609.00;;;36.60
20289;BMP180;10303;51.960;8.372;2023-06-10T12:19:59;100606.00;;;36.70
20289;BMP180;10303;51.960;8.372;2023-06-10T12:22:25;100604.00;;;36.80
20289;BMP180;10303;51.960;8.372;2023-06-10T12:25:00;100601.00;;;36.80
20289;BMP180;10303;51.960;8.372;2023-06-10T12:27:27;100596.00;;;37.00
20289;BMP180;10303;51.960;8.372;2023-06-10T12:29:57;100605.00;;;37.10
20289;BMP180;10303;51.960;8.372;2023-06-10T12:32:44;100606.00;;;37.10
20289;BMP180;10303;51.960;8.372;2023-06-10T12:35:18;100603.00;;;37.10
20289;BMP180;10303;51.960;8.372;2023-06-10T12:38:00;100602.00;;;37.10
20289;BMP180;10303;51.960;8.372;2023-06-10T12:40:36;100603.00;;;37.10
20289;BMP180;10303;51.960;8.372;2023-06-10T12:43:02;100609.00;;;37.10
20289;BMP180;10303;51.960;8.372;2023-06-10T12:45:34;100599.00;;;37.00
20289;BMP180;10303;51.960;8.372;2023-06-10T12:48:09;100594.00;;;37.00
20289;BMP180;10303;51.960;8.372;2023-06-10T12:50:37;100596.00;;;37.00
20289;BMP180;10303;51.960;8.372;2023-06-10T12:53:03;100597.00;;;37.00
20289;BMP180;10303;51.960;8.372;2023-06-10T12:55:30;100594.00;;;37.00
20289;BMP180;10303;51.960;8.372;2023-06-10T12:57:56;100599.00;;;36.90
20289;BMP180;10303;51.960;8.372;2023-06-10T13:00:23;100599.00;;;36.90
20289;BMP180;10303;51.960;8.372;2023-06-10T13:02:52;100601.00;;;36.80
20289;BMP180;10303;51.960;8.372;2023-06-10T13:05:19;100590.00;;;36.80
20289;BMP180;10303;51.960;8.372;2023-06-10T13:07:47;100593.00;;;36.80
20289;BMP180;10303;51.960;8.372;2023-06-10T13:10:14;100590.00;;;36.90
20289;BMP180;10303;51.960;8.372;2023-06-10T13:12:43;100597.00;;;36.90
20289;BMP180;10303;51.960;8.372;2023-06-10T13:15:09;100599.00;;;36.90
20289;BMP180;10303;51.960;8.372;2023-06-10T13:17:37;100595.00;;;36.90
20289;BMP180;10303;51.960;8.372;2023-06-10T13:20:04;100594.00;;;36.90
20289;BMP180;10303;51.960;8.372;2023-06-10T13:22:32;100589.00;;;37.00
20289;BMP180;10303;51.960;8.372;2023-06-10T13:24:59;100587.00;;;37.10
20289;BMP180;10303;51.960;8.372;2023-06-10T13:27:25;100571.00;;;37.10
20289;BMP180;10303;51.960;8.372;2023-06-10T13:29:51;100574.00;;;37.20
20289;BMP180;10303;51.960;8.372;2023-06-10T13:32:17;100568.00;;;37.20
20289;BMP180;10303;51.960;8.372;2023-06-10T13:34:43;100568.00;;;37.10
20289;BMP180;10303;51.960;8.372;2023-06-10T13:37:09;100573.00;;;37.00
20289;BMP180;10303;51.960;8.372;2023-06-10T13:39:35;100562.00;;;36.90
20289;BMP180;10303;51.960;8.372;2023-06-10T13:42:01;100565.00;;;36.90
20289;BMP180;10303;51.960;8.372;2023-06-10T13:44:28;100558.00;;;36.90
20289;BMP180;10303;51.960;8.372;2023-06-10T13:46:56;100562.00;;;36.80
20289;BMP180;10303;51.960;8.372;2023-06-10T13:49:22;100559.00;;;36.70
20289;BMP180;10303;51.960;8.372;2023-06-10T13:51:48;100550.00;;;36.60
20289;BMP180;10303;51.960;8.372;2023-06-10T13:54:14;100546.00;;;36.60
20289;BMP180;10303;51.960;8.372;2023-06-10T13:56:41;100545.00;;;36.50
20289;BMP180;10303;51.960;8.372;2023-06-10T13:59:07;100553.00;;;36.40
20289;BMP180;10303;51.960;8.372;2023-06-10T14:01:34;100541.00;;;36.30
20289;BMP180;10303;51.960;8.372;2023-06-10T14:04:00;100545.00;;;36.30
20289;BMP180;10303;51.960;8.372;2023-06-10T14:06:27;100542.00;;;36.20
20289;BMP180;10303;51.960;8.372;2023-06-10T14:08:52;100547.00;;;36.10
20289;BMP180;10303;51.960;8.372;2023-06-10T14:11:22;100537.00;;;36.00
20289;BMP180;10303;51.960;8.372;2023-06-10T14:13:48;100539.00;;;35.90
20289;BMP180;10303;51.960;8.372;2023-06-10T14:16:14;100546.00;;;35.80
20289;BMP180;10303;51.960;8.372;2023-06-10T14:18:40;100536.00;;;35.60
20289;BMP180;10303;51.960;8.372;2023-06-10T14:21:06;100543.00;;;35.50
20289;BMP180;10303;51.960;8.372;2023-06-10T14:23:34;100541.00;;;35.40
20289;BMP180;10303;51.960;8.372;2023-06-10T14:25:59;100533.00;;;35.30
20289;BMP180;10303;51.960;8.372;2023-06-10T14:28:26;100537.00;;;35.20
20289;BMP180;10303;51.960;8.372;2023-06-10T14:30:53;100523.00;;;35.10
20289;BMP180;10303;51.960;8.372;2023-06-10T14:33:19;100532.00;;;35.00
20289;BMP180;10303;51.960;8.372;2023-06-10T14:35:45;100532.00;;;34.90